createdAt,value
2016-05-02T00:00:59.493Z,0
2016-05-02T00:01:59.621Z,0
2016-05-02T00:03:00.889Z,0
2016-05-02T00:03:59.658Z,0
2016-05-02T00:05:12.863Z,0
2016-05-02T00:06:12.272Z,0
2016-05-02T00:07:12.447Z,0
2016-05-02T00:08:12.449Z,0
2016-05-02T00:10:09.315Z,0
2016-05-02T00:11:28.273Z,0
2016-05-02T00:12:09.257Z,0
2016-05-02T00:14:00.481Z,0
2016-05-02T00:14:12.965Z,0
2016-05-02T00:15:44.284Z,0
2016-05-02T00:16:13.112Z,0
2016-05-02T00:17:13.006Z,0
2016-05-02T00:18:13.258Z,0
2016-05-02T00:19:12.917Z,0
2016-05-02T00:20:19.372Z,0
2016-05-02T00:21:12.641Z,0
2016-05-02T00:22:32.193Z,0
2016-05-02T00:23:13.100Z,0
2016-05-02T00:24:38.558Z,0
2016-05-02T00:25:13.120Z,0
2016-05-02T00:26:38.828Z,0
2016-05-02T00:27:13.469Z,0
2016-05-02T00:28:13.221Z,0
2016-05-02T00:29:13.037Z,0
2016-05-02T00:30:13.197Z,0
2016-05-02T00:31:13.230Z,0
2016-05-02T00:32:19.217Z,0
2016-05-02T00:33:13.407Z,0
2016-05-02T00:34:13.113Z,0
2016-05-02T00:35:13.521Z,0
2016-05-02T00:36:19.837Z,0
2016-05-02T00:37:13.793Z,0
2016-05-02T00:38:32.532Z,0
2016-05-02T00:39:13.360Z,0
2016-05-02T00:40:13.363Z,0
2016-05-02T00:41:13.272Z,0
2016-05-02T00:42:13.244Z,0
2016-05-02T00:43:13.418Z,0
2016-05-02T00:44:13.874Z,0
2016-05-02T00:45:13.283Z,0
2016-05-02T00:46:19.708Z,0
2016-05-02T00:47:13.492Z,0
2016-05-02T00:48:13.494Z,0
2016-05-02T00:49:13.481Z,0
2016-05-02T00:50:13.203Z,0
2016-05-02T00:51:19.472Z,0
2016-05-02T00:52:19.817Z,0
2016-05-02T00:53:32.745Z,0
2016-05-02T00:54:26.294Z,0
2016-05-02T00:55:39.250Z,0
2016-05-02T00:56:13.422Z,0
2016-05-02T00:57:32.818Z,0
2016-05-02T00:58:19.740Z,0
2016-05-02T00:59:15.055Z,0
2016-05-02T01:00:26.216Z,0
2016-05-02T01:01:13.498Z,0
2016-05-02T01:02:13.672Z,0
2016-05-02T01:03:13.716Z,0
2016-05-02T01:04:13.622Z,0
2016-05-02T01:05:26.622Z,0
2016-05-02T01:06:14.169Z,0
2016-05-02T01:07:33.037Z,0
2016-05-02T01:08:15.241Z,0
2016-05-02T01:09:39.700Z,0
2016-05-02T01:11:04.563Z,0
2016-05-02T01:11:36.442Z,0
2016-05-02T01:12:36.412Z,0
2016-05-02T01:13:17.896Z,0
2016-05-02T01:14:17.920Z,0
2016-05-02T01:15:16.850Z,0
2016-05-02T01:16:20.390Z,0
2016-05-02T01:17:17.368Z,0
2016-05-02T01:18:29.989Z,0
2016-05-02T01:19:17.255Z,0
2016-05-02T01:20:17.274Z,0
2016-05-02T01:21:24.580Z,0
2016-05-02T01:22:18.049Z,0
2016-05-02T01:23:17.538Z,0
2016-05-02T01:24:17.494Z,0
2016-05-02T01:25:17.483Z,0
2016-05-02T01:26:23.989Z,0
2016-05-02T01:27:30.243Z,0
2016-05-02T01:28:17.258Z,0
2016-05-02T01:29:17.589Z,0
2016-05-02T01:30:17.108Z,0
2016-05-02T01:31:17.439Z,0
2016-05-02T01:32:23.883Z,0
2016-05-02T01:33:17.445Z,0
2016-05-02T01:34:18.104Z,0
2016-05-02T01:35:17.639Z,0
2016-05-02T01:36:23.972Z,0
2016-05-02T01:37:17.347Z,0
2016-05-02T01:38:30.415Z,0
2016-05-02T01:39:17.681Z,0
2016-05-02T01:41:20.842Z,0
2016-05-02T01:42:33.519Z,0
2016-05-02T01:43:20.738Z,0
2016-05-02T01:44:40.119Z,0
2016-05-02T01:45:27.215Z,0
2016-05-02T01:46:20.777Z,0
2016-05-02T01:47:33.705Z,0
2016-05-02T01:48:27.238Z,0
2016-05-02T01:49:20.816Z,0
2016-05-02T01:50:21.022Z,0
2016-05-02T01:51:33.466Z,0
2016-05-02T01:52:21.060Z,0
2016-05-02T01:53:40.299Z,0
2016-05-02T01:54:21.049Z,0
2016-05-02T01:55:20.942Z,0
2016-05-02T01:56:21.117Z,0
2016-05-02T01:57:20.932Z,0
2016-05-02T01:58:20.966Z,0
2016-05-02T01:59:21.093Z,0
2016-05-02T02:00:33.927Z,0
2016-05-02T02:01:20.990Z,0
2016-05-02T02:02:21.242Z,0
2016-05-02T02:03:21.198Z,0
2016-05-02T02:04:21.248Z,0
2016-05-02T02:05:33.784Z,0
2016-05-02T02:06:21.425Z,0
2016-05-02T02:07:21.287Z,0
2016-05-02T02:08:33.917Z,0
2016-05-02T02:09:21.261Z,0
2016-05-02T02:10:21.030Z,0
2016-05-02T02:11:33.878Z,0
2016-05-02T02:12:33.913Z,0
2016-05-02T02:13:33.728Z,0
2016-05-02T02:14:34.089Z,0
2016-05-02T02:15:21.339Z,0
2016-05-02T02:16:34.094Z,0
2016-05-02T02:17:21.438Z,0
2016-05-02T02:18:34.116Z,0
2016-05-02T02:19:21.444Z,0
2016-05-02T02:20:21.416Z,0
2016-05-02T02:21:21.527Z,0
2016-05-02T02:22:22.858Z,0
2016-05-02T02:23:34.051Z,0
2016-05-02T02:24:34.305Z,0
2016-05-02T02:25:40.781Z,0
2016-05-02T02:26:21.374Z,0
2016-05-02T02:27:53.088Z,0
2016-05-02T02:28:21.948Z,0
2016-05-02T02:29:21.529Z,0
2016-05-02T02:30:34.159Z,0
2016-05-02T02:31:22.081Z,0
2016-05-02T02:32:21.615Z,0
2016-05-02T02:33:22.930Z,0
2016-05-02T02:34:34.498Z,0
2016-05-02T02:35:23.076Z,0
2016-05-02T02:36:22.578Z,0
2016-05-02T02:37:23.081Z,0
2016-05-02T02:38:22.256Z,0
2016-05-02T02:39:34.402Z,0
2016-05-02T02:40:34.405Z,0
2016-05-02T02:41:21.545Z,0
2016-05-02T02:42:21.564Z,0
2016-05-02T02:43:21.722Z,0
2016-05-02T02:44:21.725Z,0
2016-05-02T02:45:22.008Z,0
2016-05-02T02:46:34.358Z,0
2016-05-02T02:47:34.627Z,0
2016-05-02T02:48:34.535Z,0
2016-05-02T02:49:34.632Z,0
2016-05-02T02:50:41.025Z,0
2016-05-02T02:51:21.572Z,0
2016-05-02T02:52:22.138Z,0
2016-05-02T02:53:21.921Z,0
2016-05-02T02:54:21.721Z,0
2016-05-02T02:55:21.880Z,0
2016-05-02T02:56:34.463Z,0
2016-05-02T02:57:21.932Z,0
2016-05-02T02:58:24.778Z,0
2016-05-02T02:59:21.640Z,0
2016-05-02T03:00:22.050Z,0
2016-05-02T03:01:34.929Z,0
2016-05-02T03:02:21.711Z,0
2016-05-02T03:03:21.854Z,0
2016-05-02T03:04:22.170Z,0
2016-05-02T03:05:22.048Z,0
2016-05-02T03:06:22.082Z,0
2016-05-02T03:07:22.053Z,0
2016-05-02T03:08:22.181Z,0
2016-05-02T03:09:22.074Z,0
2016-05-02T03:10:22.014Z,0
2016-05-02T03:11:21.954Z,0
2016-05-02T03:12:22.051Z,0
2016-05-02T03:13:22.163Z,0
2016-05-02T03:14:22.181Z,0
2016-05-02T03:15:22.167Z,0
2016-05-02T03:16:21.686Z,0
2016-05-02T03:17:22.220Z,0
2016-05-02T03:18:22.036Z,0
2016-05-02T03:19:22.491Z,0
2016-05-02T03:20:22.275Z,0
2016-05-02T03:21:22.293Z,0
2016-05-02T03:22:22.187Z,0
2016-05-02T03:23:22.283Z,0
2016-05-02T03:24:22.489Z,0
2016-05-02T03:25:22.319Z,0
2016-05-02T03:26:22.197Z,0
2016-05-02T03:27:22.341Z,0
2016-05-02T03:28:22.171Z,0
2016-05-02T03:29:22.362Z,0
2016-05-02T03:30:22.255Z,0
2016-05-02T03:31:22.383Z,0
2016-05-02T03:32:22.073Z,0
2016-05-02T03:33:21.560Z,0
2016-05-02T03:34:22.484Z,0
2016-05-02T03:35:22.315Z,0
2016-05-02T03:36:23.115Z,0
2016-05-02T03:37:22.321Z,5
2016-05-02T03:38:22.229Z,5
2016-05-02T03:39:22.186Z,5
2016-05-02T03:40:22.220Z,5
2016-05-02T03:41:22.394Z,5
2016-05-02T03:42:22.600Z,5
2016-05-02T03:43:22.399Z,5
2016-05-02T03:44:22.574Z,5
2016-05-02T03:45:22.608Z,5
2016-05-02T03:46:22.439Z,10
2016-05-02T03:47:22.708Z,10
2016-05-02T03:48:22.475Z,10
2016-05-02T03:49:22.291Z,10
2016-05-02T03:50:22.652Z,10
2016-05-02T03:51:23.436Z,15
2016-05-02T03:52:22.674Z,15
2016-05-02T03:53:22.567Z,15
2016-05-02T03:54:22.679Z,15
2016-05-02T03:55:22.525Z,20
2016-05-02T03:56:22.732Z,20
2016-05-02T03:57:22.594Z,20
2016-05-02T03:58:22.472Z,20
2016-05-02T03:59:22.740Z,25
2016-05-02T04:00:22.868Z,25
2016-05-02T04:01:22.635Z,25
2016-05-02T04:02:22.669Z,30
2016-05-02T04:03:22.813Z,30
2016-05-02T04:04:22.925Z,30
2016-05-02T04:05:22.677Z,35
2016-05-02T04:06:23.149Z,35
2016-05-02T04:07:22.855Z,40
2016-05-02T04:08:22.795Z,40
2016-05-02T04:09:22.876Z,45
2016-05-02T04:10:22.784Z,45
2016-05-02T04:11:22.615Z,45
2016-05-02T04:12:22.946Z,50
2016-05-02T04:13:22.949Z,50
2016-05-02T04:14:22.936Z,55
2016-05-02T04:15:22.986Z,55
2016-05-02T04:16:22.973Z,55
2016-05-02T04:17:23.084Z,55
2016-05-02T04:18:22.931Z,60
2016-05-02T04:19:23.106Z,60
2016-05-02T04:20:23.030Z,65
2016-05-02T04:21:23.642Z,65
2016-05-02T04:22:22.927Z,70
2016-05-02T04:23:22.757Z,70
2016-05-02T04:24:22.791Z,75
2016-05-02T04:25:23.153Z,75
2016-05-02T04:26:23.140Z,80
2016-05-02T04:27:23.158Z,85
2016-05-02T04:28:29.570Z,85
2016-05-02T04:29:23.054Z,90
2016-05-02T04:30:23.198Z,90
2016-05-02T04:31:23.232Z,95
2016-05-02T04:32:22.906Z,95
2016-05-02T04:33:23.221Z,100
2016-05-02T04:34:23.224Z,105
2016-05-02T04:35:23.243Z,105
2016-05-02T04:36:23.729Z,110
2016-05-02T04:37:23.107Z,110
2016-05-02T04:38:23.673Z,115
2016-05-02T04:39:23.004Z,120
2016-05-02T04:40:23.318Z,120
2016-05-02T04:41:23.180Z,125
2016-05-02T04:42:23.198Z,130
2016-05-02T04:43:23.359Z,130
2016-05-02T04:44:23.282Z,135
2016-05-02T04:45:23.379Z,140
2016-05-02T04:46:23.381Z,140
2016-05-02T04:47:23.369Z,145
2016-05-02T04:48:23.418Z,145
2016-05-02T04:49:36.220Z,150
2016-05-02T04:50:23.298Z,150
2016-05-02T04:51:23.442Z,155
2016-05-02T04:52:23.303Z,160
2016-05-02T04:53:23.353Z,165
2016-05-02T04:54:23.513Z,165
2016-05-02T04:55:23.530Z,170
2016-05-02T04:56:23.549Z,175
2016-05-02T04:57:23.411Z,175
2016-05-02T04:58:29.713Z,175
2016-05-02T04:59:23.447Z,180
2016-05-02T05:00:23.622Z,185
2016-05-02T05:01:23.485Z,185
2016-05-02T05:02:23.643Z,185
2016-05-02T05:03:23.490Z,190
2016-05-02T05:04:23.868Z,195
2016-05-02T05:05:23.370Z,200
2016-05-02T05:06:23.545Z,205
2016-05-02T05:07:23.876Z,210
2016-05-02T05:08:23.769Z,215
2016-05-02T05:09:23.397Z,220
2016-05-02T05:10:23.931Z,230
2016-05-02T05:11:23.980Z,230
2016-05-02T05:12:23.467Z,235
2016-05-02T05:13:24.017Z,245
2016-05-02T05:14:23.629Z,260
2016-05-02T05:15:24.632Z,340
2016-05-02T05:16:24.165Z,445
2016-05-02T05:17:24.075Z,495
2016-05-02T05:18:23.703Z,505
2016-05-02T05:19:23.736Z,520
2016-05-02T05:20:23.754Z,535
2016-05-02T05:21:24.694Z,540
2016-05-02T05:22:23.978Z,550
2016-05-02T05:23:24.012Z,565
2016-05-02T05:24:24.515Z,580
2016-05-02T05:25:24.002Z,595
2016-05-02T05:26:24.005Z,595
2016-05-02T05:27:24.039Z,605
2016-05-02T05:28:24.104Z,620
2016-05-02T05:29:24.107Z,615
2016-05-02T05:30:24.141Z,635
2016-05-02T05:31:24.722Z,645
2016-05-02T05:32:24.255Z,650
2016-05-02T05:33:24.118Z,655
2016-05-02T05:34:24.245Z,675
2016-05-02T05:35:24.185Z,675
2016-05-02T05:36:24.141Z,690
2016-05-02T05:37:24.096Z,685
2016-05-02T05:38:24.256Z,700
2016-05-02T05:39:24.290Z,710
2016-05-02T05:40:24.261Z,715
2016-05-02T05:41:24.327Z,730
2016-05-02T05:42:24.329Z,730
2016-05-02T05:43:24.331Z,745
2016-05-02T05:44:24.350Z,760
2016-05-02T05:45:37.137Z,760
2016-05-02T05:46:24.418Z,760
2016-05-02T05:47:24.405Z,785
2016-05-02T05:48:24.142Z,815
2016-05-02T05:49:24.442Z,830
2016-05-02T05:50:24.507Z,845
2016-05-02T05:51:24.978Z,845
2016-05-02T05:52:24.559Z,870
2016-05-02T05:53:24.592Z,890
2016-05-02T05:54:24.674Z,910
2016-05-02T05:55:24.630Z,935
2016-05-02T05:56:24.555Z,945
2016-05-02T05:57:24.667Z,925
2016-05-02T05:58:24.747Z,910
2016-05-02T05:59:24.421Z,925
2016-05-02T06:00:24.752Z,935
2016-05-02T06:01:24.849Z,955
2016-05-02T06:02:24.649Z,950
2016-05-02T06:03:24.932Z,955
2016-05-02T06:04:24.857Z,970
2016-05-02T06:05:24.563Z,985
2016-05-02T06:06:24.893Z,970
2016-05-02T06:07:25.162Z,995
2016-05-02T06:08:24.946Z,1030
2016-05-02T06:09:24.824Z,1040
2016-05-02T06:10:24.889Z,1025
2016-05-02T06:11:25.016Z,1030
2016-05-02T06:12:25.034Z,1045
2016-05-02T06:13:25.100Z,1055
2016-05-02T06:14:25.118Z,1055
2016-05-02T06:15:25.136Z,1055
2016-05-02T06:16:25.779Z,1060
2016-05-02T06:17:25.204Z,1065
2016-05-02T06:18:25.317Z,1075
2016-05-02T06:19:25.256Z,1085
2016-05-02T06:20:25.275Z,1090
2016-05-02T06:21:24.839Z,1120
2016-05-02T06:22:25.332Z,1150
2016-05-02T06:23:25.241Z,1170
2016-05-02T06:24:25.087Z,1145
2016-05-02T06:25:24.981Z,1135
2016-05-02T06:26:25.358Z,1155
2016-05-02T06:27:25.517Z,1175
2016-05-02T06:28:25.363Z,1185
2016-05-02T06:29:25.241Z,1205
2016-05-02T06:30:25.572Z,1215
2016-05-02T06:31:25.482Z,1210
2016-05-02T06:32:25.609Z,1210
2016-05-02T06:33:25.502Z,1190
2016-05-02T06:34:25.771Z,1210
2016-05-02T06:35:28.898Z,1240
2016-05-02T06:36:27.152Z,1220
2016-05-02T06:37:25.873Z,1230
2016-05-02T06:38:25.969Z,1245
2016-05-02T06:39:25.690Z,1250
2016-05-02T06:40:25.802Z,1255
2016-05-02T06:41:25.899Z,1265
2016-05-02T06:42:25.918Z,1250
2016-05-02T06:43:25.951Z,1250
2016-05-02T06:44:25.845Z,1285
2016-05-02T06:45:27.456Z,1285
2016-05-02T06:46:25.881Z,1275
2016-05-02T06:47:25.883Z,1265
2016-05-02T06:48:26.121Z,1250
2016-05-02T06:49:26.170Z,1270
2016-05-02T06:50:26.017Z,1265
2016-05-02T06:51:28.067Z,1325
2016-05-02T06:52:26.069Z,1330
2016-05-02T06:53:26.258Z,1295
2016-05-02T06:54:26.136Z,1345
2016-05-02T06:55:26.202Z,1365
2016-05-02T06:56:26.361Z,1315
2016-05-02T06:57:26.410Z,1255
2016-05-02T06:58:26.382Z,1325
2016-05-02T06:59:26.307Z,1365
2016-05-02T07:00:26.513Z,1380
2016-05-02T07:01:26.640Z,1395
2016-05-02T07:02:26.549Z,1370
2016-05-02T07:03:26.661Z,1385
2016-05-02T07:04:26.586Z,1360
2016-05-02T07:05:26.448Z,1355
2016-05-02T07:06:26.529Z,1395
2016-05-02T07:07:26.813Z,1375
2016-05-02T07:08:26.581Z,1370
2016-05-02T07:09:26.787Z,1365
2016-05-02T07:10:26.837Z,1340
2016-05-02T07:11:26.823Z,1285
2016-05-02T07:12:26.701Z,1345
2016-05-02T07:13:26.923Z,1405
2016-05-02T07:14:26.972Z,1420
2016-05-02T07:15:26.818Z,1410
2016-05-02T07:16:26.977Z,1435
2016-05-02T07:17:26.856Z,1445
2016-05-02T07:18:27.092Z,1430
2016-05-02T07:19:27.095Z,1465
2016-05-02T07:20:27.066Z,1455
2016-05-02T07:21:27.319Z,1425
2016-05-02T07:22:27.197Z,1405
2016-05-02T07:23:27.324Z,1330
2016-05-02T07:24:27.109Z,1385
2016-05-02T07:25:27.127Z,1425
2016-05-02T07:26:27.364Z,1440
2016-05-02T07:27:27.304Z,1425
2016-05-02T07:28:27.213Z,1460
2016-05-02T07:29:27.450Z,1500
2016-05-02T07:30:27.593Z,1505
2016-05-02T07:31:27.611Z,1460
2016-05-02T07:32:27.770Z,1510
2016-05-02T07:33:27.444Z,1485
2016-05-02T07:34:27.697Z,1460
2016-05-02T07:35:27.529Z,1485
2016-05-02T07:36:27.999Z,1485
2016-05-02T07:37:27.674Z,1475
2016-05-02T07:38:27.879Z,1470
2016-05-02T07:39:27.758Z,1460
2016-05-02T07:40:27.854Z,1500
2016-05-02T07:41:27.826Z,1525
2016-05-02T07:42:27.844Z,1515
2016-05-02T07:43:27.988Z,1490
2016-05-02T07:44:27.928Z,1455
2016-05-02T07:45:30.993Z,1470
2016-05-02T07:46:27.980Z,1485
2016-05-02T07:47:28.029Z,1470
2016-05-02T07:48:28.064Z,1460
2016-05-02T07:49:28.097Z,1445
2016-05-02T07:50:28.100Z,1480
2016-05-02T07:51:28.275Z,1480
2016-05-02T07:52:28.043Z,1460
2016-05-02T07:53:28.202Z,1500
2016-05-02T07:54:28.111Z,1505
2016-05-02T07:55:28.113Z,1460
2016-05-02T07:56:28.397Z,1255
2016-05-02T07:57:28.181Z,710
2016-05-02T07:58:28.403Z,470
2016-05-02T07:59:28.421Z,460
2016-05-02T08:00:28.439Z,450
2016-05-02T08:01:28.364Z,445
2016-05-02T08:02:28.382Z,440
2016-05-02T08:03:28.682Z,435
2016-05-02T08:04:28.560Z,430
2016-05-02T08:05:28.624Z,430
2016-05-02T08:06:28.330Z,430
2016-05-02T08:07:28.661Z,430
2016-05-02T08:08:28.727Z,425
2016-05-02T08:09:28.730Z,425
2016-05-02T08:10:28.762Z,420
2016-05-02T08:11:28.797Z,420
2016-05-02T08:12:28.893Z,420
2016-05-02T08:13:28.849Z,420
2016-05-02T08:14:29.024Z,415
2016-05-02T08:15:28.902Z,415
2016-05-02T08:16:28.982Z,415
2016-05-02T08:17:28.812Z,415
2016-05-02T08:18:29.019Z,415
2016-05-02T08:19:29.006Z,415
2016-05-02T08:20:28.868Z,415
2016-05-02T08:21:29.653Z,415
2016-05-02T08:22:29.092Z,410
2016-05-02T08:23:29.141Z,410
2016-05-02T08:24:29.176Z,410
2016-05-02T08:25:29.147Z,415
2016-05-02T08:26:29.197Z,410
2016-05-02T08:27:29.262Z,410
2016-05-02T08:28:29.108Z,405
2016-05-02T08:29:29.283Z,405
2016-05-02T08:30:29.333Z,405
2016-05-02T08:31:29.397Z,400
2016-05-02T08:32:29.478Z,400
2016-05-02T08:33:29.419Z,400
2016-05-02T08:34:29.515Z,400
2016-05-02T08:35:29.283Z,400
2016-05-02T08:36:29.177Z,400
2016-05-02T08:37:29.507Z,395
2016-05-02T08:38:29.495Z,395
2016-05-02T08:39:29.372Z,395
2016-05-02T08:40:29.562Z,400
2016-05-02T08:41:29.627Z,400
2016-05-02T08:42:29.615Z,395
2016-05-02T08:43:29.837Z,395
2016-05-02T08:44:29.698Z,395
2016-05-02T08:45:29.795Z,395
2016-05-02T08:46:29.720Z,400
2016-05-02T08:47:29.801Z,400
2016-05-02T08:48:29.615Z,400
2016-05-02T08:49:30.774Z,400
2016-05-02T08:50:29.792Z,400
2016-05-02T08:51:29.858Z,400
2016-05-02T08:52:30.111Z,395
2016-05-02T08:53:29.895Z,395
2016-05-02T08:54:29.803Z,390
2016-05-02T08:55:29.758Z,385
2016-05-02T08:56:30.325Z,385
2016-05-02T08:57:30.000Z,380
2016-05-02T08:58:30.048Z,375
2016-05-02T08:59:30.067Z,375
2016-05-02T09:00:29.976Z,375
2016-05-02T09:01:30.056Z,370
2016-05-02T09:02:29.950Z,370
2016-05-02T09:03:30.094Z,370
2016-05-02T09:04:30.158Z,370
2016-05-02T09:05:30.271Z,370
2016-05-02T09:06:30.570Z,370
2016-05-02T09:07:30.385Z,370
2016-05-02T09:08:30.091Z,370
2016-05-02T09:09:30.203Z,370
2016-05-02T09:10:30.159Z,370
2016-05-02T09:11:30.380Z,370
2016-05-02T09:12:30.335Z,370
2016-05-02T09:13:30.370Z,375
2016-05-02T09:14:30.388Z,370
2016-05-02T09:15:30.390Z,370
2016-05-02T09:16:30.456Z,370
2016-05-02T09:17:30.474Z,370
2016-05-02T09:18:30.524Z,365
2016-05-02T09:19:30.495Z,365
2016-05-02T09:20:30.670Z,365
2016-05-02T09:21:30.610Z,360
2016-05-02T09:22:30.535Z,355
2016-05-02T09:23:30.600Z,355
2016-05-02T09:24:30.540Z,355
2016-05-02T09:25:30.652Z,350
2016-05-02T09:26:30.671Z,350
2016-05-02T09:27:31.298Z,350
2016-05-02T09:28:43.289Z,350
2016-05-02T09:29:36.851Z,345
2016-05-02T09:30:50.058Z,345
2016-05-02T09:31:30.855Z,345
2016-05-02T09:32:30.514Z,345
2016-05-02T09:33:31.393Z,345
2016-05-02T09:34:43.585Z,340
2016-05-02T09:35:43.620Z,340
2016-05-02T09:36:56.278Z,340
2016-05-02T09:37:30.935Z,340
2016-05-02T09:38:56.706Z,340
2016-05-02T09:39:31.159Z,340
2016-05-02T09:40:30.677Z,340
2016-05-02T09:41:31.038Z,340
2016-05-02T09:42:31.371Z,335
2016-05-02T09:43:43.656Z,335
2016-05-02T09:44:31.109Z,335
2016-05-02T09:45:30.847Z,330
2016-05-02T09:46:31.162Z,330
2016-05-02T09:47:31.180Z,330
2016-05-02T09:48:31.465Z,330
2016-05-02T09:49:31.076Z,325
2016-05-02T09:50:30.954Z,325
2016-05-02T09:51:31.784Z,325
2016-05-02T09:52:44.150Z,325
2016-05-02T09:53:31.462Z,325
2016-05-02T09:54:57.014Z,320
2016-05-02T09:55:31.670Z,320
2016-05-02T09:56:31.454Z,320
2016-05-02T09:57:31.613Z,320
2016-05-02T09:58:31.553Z,320
2016-05-02T09:59:31.572Z,320
2016-05-02T10:00:31.339Z,320
2016-05-02T10:01:31.421Z,320
2016-05-02T10:02:31.564Z,315
2016-05-02T10:03:31.598Z,315
2016-05-02T10:04:33.008Z,315
2016-05-02T10:05:44.356Z,315
2016-05-02T10:06:31.513Z,315
2016-05-02T10:07:50.861Z,315
2016-05-02T10:08:31.705Z,315
2016-05-02T10:10:28.880Z,310
2016-05-02T10:10:41.394Z,310
2016-05-02T10:13:16.955Z,305
2016-05-02T10:13:51.178Z,305
2016-05-02T10:14:51.836Z,305
2016-05-02T10:15:51.230Z,305
2016-05-02T10:16:51.451Z,305
2016-05-02T10:17:51.469Z,305
2016-05-02T10:18:51.375Z,300
2016-05-02T10:19:51.711Z,300
2016-05-02T10:20:57.939Z,300
2016-05-02T10:22:04.416Z,300
2016-05-02T10:23:10.690Z,300
2016-05-02T10:23:51.696Z,300
2016-05-02T10:24:51.529Z,300
2016-05-02T10:25:51.753Z,295
2016-05-02T10:26:51.617Z,295
2016-05-02T10:27:53.371Z,295
2016-05-02T10:28:58.064Z,290
2016-05-02T10:29:51.973Z,290
2016-05-02T10:31:04.476Z,290
2016-05-02T10:31:52.027Z,290
2016-05-02T10:33:11.186Z,290
2016-05-02T10:33:51.955Z,290
2016-05-02T10:35:17.677Z,290
2016-05-02T10:36:04.741Z,285
2016-05-02T10:37:23.308Z,285
2016-05-02T10:38:11.232Z,285
2016-05-02T10:38:52.063Z,285
2016-05-02T10:40:54.583Z,290
2016-05-02T10:41:26.380Z,285
2016-05-02T10:42:07.118Z,285
2016-05-02T10:43:07.355Z,285
2016-05-02T10:44:13.591Z,280
2016-05-02T10:45:13.657Z,280
2016-05-02T10:46:20.112Z,275
2016-05-02T10:47:19.912Z,275
2016-05-02T10:48:07.461Z,275
2016-05-02T10:49:07.449Z,275
2016-05-02T10:50:07.326Z,280
2016-05-02T10:51:07.798Z,280
2016-05-02T10:52:07.737Z,280
2016-05-02T10:53:07.381Z,275
2016-05-02T10:54:07.681Z,270
2016-05-02T10:55:20.323Z,270
2016-05-02T10:56:07.326Z,270
2016-05-02T10:57:33.423Z,275
2016-05-02T10:58:07.707Z,275
2016-05-02T11:00:07.712Z,275
2016-05-02T11:01:07.622Z,275
2016-05-02T11:02:07.952Z,270
2016-05-02T11:03:13.924Z,270
2016-05-02T11:04:14.098Z,270
2016-05-02T11:05:20.601Z,270
2016-05-02T11:06:09.526Z,270
2016-05-02T11:07:20.653Z,270
2016-05-02T11:08:07.953Z,275
2016-05-02T11:09:58.646Z,270
2016-05-02T11:10:23.880Z,270
2016-05-02T11:11:37.132Z,270
2016-05-02T11:12:14.401Z,270
2016-05-02T11:13:11.405Z,270
2016-05-02T11:14:11.407Z,270
2016-05-02T11:15:11.519Z,270
2016-05-02T11:16:23.912Z,280
2016-05-02T11:17:17.837Z,290
2016-05-02T11:18:37.230Z,290
2016-05-02T11:19:11.373Z,285
2016-05-02T11:20:42.845Z,270
2016-05-02T11:21:17.957Z,265
2016-05-02T11:22:11.615Z,265
2016-05-02T11:23:24.282Z,265
2016-05-02T11:24:11.926Z,265
2016-05-02T11:25:30.757Z,265
2016-05-02T11:26:12.321Z,270
2016-05-02T11:27:30.965Z,275
2016-05-02T11:29:02.126Z,275
2016-05-02T11:29:40.517Z,270
2016-05-02T11:30:14.926Z,275
2016-05-02T11:31:15.131Z,270
2016-05-02T11:32:14.917Z,265
2016-05-02T11:33:16.215Z,240
2016-05-02T11:34:14.828Z,255
2016-05-02T11:35:15.080Z,260
2016-05-02T11:36:16.583Z,265
2016-05-02T11:37:15.883Z,265
2016-05-02T11:38:15.526Z,275
2016-05-02T11:39:16.388Z,295
2016-05-02T11:40:15.406Z,295
2016-05-02T11:41:15.128Z,280
2016-05-02T11:42:15.755Z,270
2016-05-02T11:43:15.913Z,265
2016-05-02T11:44:15.636Z,265
2016-05-02T11:45:27.904Z,295
2016-05-02T11:46:15.782Z,300
2016-05-02T11:47:15.207Z,295
2016-05-02T11:48:15.412Z,280
2016-05-02T11:49:22.227Z,265
2016-05-02T11:50:15.183Z,260
2016-05-02T11:51:35.857Z,260
2016-05-02T11:52:15.298Z,255
2016-05-02T11:54:25.021Z,270
2016-05-02T11:55:24.868Z,280
2016-05-02T11:56:31.277Z,275
2016-05-02T11:57:25.045Z,260
2016-05-02T11:58:44.314Z,250
2016-05-02T11:59:25.082Z,245
2016-05-02T12:00:50.634Z,245
2016-05-02T12:01:25.181Z,245
2016-05-02T12:02:44.387Z,255
2016-05-02T12:03:25.328Z,295
2016-05-02T12:04:25.128Z,305
2016-05-02T12:05:38.020Z,290
2016-05-02T12:06:31.758Z,300
2016-05-02T12:07:44.776Z,330
2016-05-02T12:08:38.342Z,345
2016-05-02T12:10:22.519Z,385
2016-05-02T12:11:00.911Z,375
2016-05-02T12:11:35.224Z,360
2016-05-02T12:13:01.120Z,320
2016-05-02T12:13:35.120Z,310
2016-05-02T12:15:04.032Z,270
2016-05-02T12:15:35.157Z,270
2016-05-02T12:17:06.771Z,265
2016-05-02T12:17:35.537Z,260
2016-05-02T12:18:35.383Z,275
2016-05-02T12:19:35.543Z,285
2016-05-02T12:20:36.311Z,300
2016-05-02T12:21:36.923Z,305
2016-05-02T12:22:35.597Z,320
2016-05-02T12:23:54.274Z,355
2016-05-02T12:24:35.509Z,345
2016-05-02T12:25:35.589Z,370
2016-05-02T12:26:35.624Z,360
2016-05-02T12:27:35.470Z,340
2016-05-02T12:28:36.254Z,320
2016-05-02T12:29:48.478Z,310
2016-05-02T12:30:35.572Z,310
2016-05-02T12:31:35.731Z,300
2016-05-02T12:32:35.842Z,295
2016-05-02T12:33:35.627Z,285
2016-05-02T12:34:35.895Z,285
2016-05-02T12:35:48.589Z,325
2016-05-02T12:36:35.807Z,340
2016-05-02T12:37:55.109Z,355
2016-05-02T12:38:36.125Z,355
2016-05-02T12:39:35.956Z,350
2016-05-02T12:40:35.974Z,335
2016-05-02T12:41:36.023Z,325
2016-05-02T12:42:36.025Z,310
2016-05-02T12:43:36.028Z,300
2016-05-02T12:44:35.906Z,285
2016-05-02T12:45:36.113Z,275
2016-05-02T12:46:35.974Z,265
2016-05-02T12:47:48.713Z,260
2016-05-02T12:48:35.870Z,255
2016-05-02T12:49:36.249Z,255
2016-05-02T12:50:36.219Z,265
2016-05-02T12:51:38.097Z,270
2016-05-02T12:52:36.272Z,265
2016-05-02T12:53:36.165Z,255
2016-05-02T12:54:36.371Z,250
2016-05-02T12:55:36.389Z,245
2016-05-02T12:56:36.423Z,245
2016-05-02T12:57:36.410Z,245
2016-05-02T12:58:36.507Z,245
2016-05-02T12:59:36.479Z,245
2016-05-02T13:00:36.324Z,255
2016-05-02T13:01:36.515Z,270
2016-05-02T13:02:36.534Z,280
2016-05-02T13:03:36.567Z,275
2016-05-02T13:04:36.601Z,265
2016-05-02T13:05:36.542Z,260
2016-05-02T13:06:36.498Z,250
2016-05-02T13:07:36.703Z,245
2016-05-02T13:08:49.315Z,240
2016-05-02T13:09:37.083Z,240
2016-05-02T13:10:36.773Z,240
2016-05-02T13:11:42.978Z,240
2016-05-02T13:12:36.825Z,240
2016-05-02T13:13:36.531Z,240
2016-05-02T13:14:36.847Z,235
2016-05-02T13:15:43.147Z,235
2016-05-02T13:16:36.617Z,235
2016-05-02T13:17:37.136Z,230
2016-05-02T13:18:37.420Z,230
2016-05-02T13:19:36.735Z,235
2016-05-02T13:20:36.863Z,235
2016-05-02T13:21:38.303Z,235
2016-05-02T13:22:36.915Z,240
2016-05-02T13:23:37.168Z,240
2016-05-02T13:24:37.170Z,240
2016-05-02T13:25:37.126Z,240
2016-05-02T13:26:37.160Z,240
2016-05-02T13:27:37.241Z,240
2016-05-02T13:28:37.244Z,240
2016-05-02T13:29:37.184Z,240
2016-05-02T13:30:37.279Z,240
2016-05-02T13:31:37.174Z,240
2016-05-02T13:32:38.442Z,235
2016-05-02T13:33:37.195Z,235
2016-05-02T13:34:37.400Z,235
2016-05-02T13:35:43.654Z,245
2016-05-02T13:36:37.608Z,255
2016-05-02T13:37:50.127Z,270
2016-05-02T13:38:37.318Z,265
2016-05-02T13:39:56.557Z,255
2016-05-02T13:40:37.698Z,245
2016-05-02T13:41:37.545Z,240
2016-05-02T13:42:37.578Z,240
2016-05-02T13:43:38.081Z,240
2016-05-02T13:44:38.255Z,240
2016-05-02T13:45:50.383Z,235
2016-05-02T13:46:37.683Z,235
2016-05-02T13:47:37.763Z,240
2016-05-02T13:48:37.610Z,240
2016-05-02T13:49:50.816Z,235
2016-05-02T13:50:37.615Z,235
2016-05-02T13:52:03.199Z,235
2016-05-02T13:52:38.339Z,235
2016-05-02T13:54:03.548Z,235
2016-05-02T13:54:38.532Z,235
2016-05-02T13:55:44.051Z,235
2016-05-02T13:56:41.085Z,230
2016-05-02T13:57:50.571Z,230
2016-05-02T13:58:43.824Z,230
2016-05-02T14:00:47.533Z,235
2016-05-02T14:01:47.535Z,230
2016-05-02T14:02:47.570Z,235
2016-05-02T14:04:00.418Z,230
2016-05-02T14:05:00.343Z,230
2016-05-02T14:06:57.754Z,225
2016-05-02T14:07:11.879Z,225
2016-05-02T14:09:13.495Z,230